createdAt,value
2024-04-09T00:00:39.360Z,199.82
2024-04-09T00:01:39.422Z,199.68
2024-04-09T00:02:39.485Z,199.96
2024-04-09T00:03:39.839Z,199.78
2024-04-09T00:04:39.674Z,199.87
2024-04-09T00:05:39.627Z,199.93
2024-04-09T00:06:39.739Z,200.00
2024-04-09T00:07:39.756Z,199.87
2024-04-09T00:08:39.816Z,199.74
2024-04-09T00:09:40.044Z,199.97
2024-04-09T00:10:39.892Z,199.98
2024-04-09T00:11:39.951Z,200.07
2024-04-09T00:12:40.076Z,200.30
2024-04-09T00:13:39.900Z,200.66
2024-04-09T00:14:39.931Z,201.11
2024-04-09T00:15:39.948Z,200.07
2024-04-09T00:16:39.903Z,199.91
2024-04-09T00:17:39.978Z,199.79
2024-04-09T00:18:40.029Z,199.86
2024-04-09T00:19:39.970Z,199.75
2024-04-09T00:20:39.971Z,199.76
2024-04-09T00:21:40.106Z,199.82
2024-04-09T00:22:39.976Z,199.77
2024-04-09T00:23:39.973Z,199.86
2024-04-09T00:24:40.009Z,200.08
2024-04-09T00:25:39.993Z,200.52
2024-04-09T00:26:39.988Z,201.36
2024-04-09T00:27:42.859Z,200.28
2024-04-09T00:28:39.993Z,200.28
2024-04-09T00:29:39.987Z,200.26
2024-04-09T00:30:39.989Z,200.29
2024-04-09T00:31:39.994Z,200.38
2024-04-09T00:32:40.110Z,200.64
2024-04-09T00:33:40.071Z,199.65
2024-04-09T00:34:40.074Z,199.99
2024-04-09T00:35:40.010Z,199.85
2024-04-09T00:36:40.071Z,199.85
2024-04-09T00:37:40.103Z,200.00
2024-04-09T00:38:40.181Z,200.02
2024-04-09T00:39:40.323Z,199.90
2024-04-09T00:40:40.284Z,199.88
2024-04-09T00:41:40.342Z,199.88
2024-04-09T00:42:40.428Z,200.00
2024-04-09T00:43:40.448Z,199.74
2024-04-09T00:44:40.457Z,199.75
2024-04-09T00:45:40.506Z,199.80
2024-04-09T00:46:40.452Z,199.87
2024-04-09T00:47:40.568Z,200.10
2024-04-09T00:48:40.645Z,200.29
2024-04-09T00:49:40.458Z,200.00
2024-04-09T00:50:40.455Z,199.95
2024-04-09T00:51:40.575Z,199.96
2024-04-09T00:52:40.547Z,199.93
2024-04-09T00:53:40.629Z,199.84
2024-04-09T00:54:40.676Z,200.00
2024-04-09T00:55:40.703Z,199.82
2024-04-09T00:56:40.769Z,200.07
2024-04-09T00:57:40.893Z,199.70
2024-04-09T00:58:40.961Z,199.94
2024-04-09T00:59:40.988Z,200.00
2024-04-09T01:00:41.217Z,199.99
2024-04-09T01:01:41.164Z,199.81
2024-04-09T01:02:41.285Z,200.02
2024-04-09T01:03:41.383Z,199.95
2024-04-09T01:04:41.739Z,199.89
2024-04-09T01:05:41.427Z,199.66
2024-04-09T01:06:41.520Z,199.80
2024-04-09T01:07:41.560Z,199.93
2024-04-09T01:08:41.656Z,199.93
2024-04-09T01:09:41.704Z,199.93
2024-04-09T01:10:41.725Z,199.95
2024-04-09T01:11:41.673Z,200.01
2024-04-09T01:12:41.656Z,200.09
2024-04-09T01:13:41.661Z,200.38
2024-04-09T01:14:41.680Z,201.02
2024-04-09T01:15:41.759Z,200.00
2024-04-09T01:16:41.660Z,199.86
2024-04-09T01:17:41.804Z,199.89
2024-04-09T01:18:41.763Z,199.91
2024-04-09T01:19:41.752Z,199.93
2024-04-09T01:20:41.746Z,199.96
2024-04-09T01:21:41.811Z,200.16
2024-04-09T01:22:41.750Z,200.36
2024-04-09T01:23:41.714Z,199.87
2024-04-09T01:24:41.727Z,199.86
2024-04-09T01:25:41.736Z,199.84
2024-04-09T01:26:41.805Z,199.68
2024-04-09T01:27:41.893Z,199.78
2024-04-09T01:28:41.935Z,199.69
2024-04-09T01:29:41.975Z,199.72
2024-04-09T01:30:42.219Z,199.75
2024-04-09T01:31:42.114Z,199.55
2024-04-09T01:32:42.454Z,199.73
2024-04-09T01:33:42.407Z,199.61
2024-04-09T01:34:42.362Z,199.60
2024-04-09T01:35:42.400Z,199.38
2024-04-09T01:36:42.480Z,199.29
2024-04-09T01:37:42.537Z,199.70
2024-04-09T01:38:42.616Z,199.46
2024-04-09T01:39:42.675Z,199.21
2024-04-09T01:40:42.746Z,199.22
2024-04-09T01:41:42.816Z,199.00
2024-04-09T01:42:42.950Z,199.06
2024-04-09T01:43:42.939Z,199.20
2024-04-09T01:44:42.996Z,199.07
2024-04-09T01:45:44.092Z,199.22
2024-04-09T01:46:43.159Z,199.02
2024-04-09T01:47:43.378Z,199.19
2024-04-09T01:48:43.294Z,198.97
2024-04-09T01:49:43.344Z,198.90
2024-04-09T01:50:43.407Z,199.13
2024-04-09T01:51:43.541Z,198.95
2024-04-09T01:52:43.548Z,198.83
2024-04-09T01:53:43.626Z,198.77
2024-04-09T01:54:43.687Z,198.44
2024-04-09T01:55:43.750Z,198.14
2024-04-09T01:56:43.807Z,198.23
2024-04-09T01:57:43.871Z,198.16
2024-04-09T01:58:43.924Z,198.22
2024-04-09T01:59:43.999Z,198.14
2024-04-09T02:00:44.096Z,198.32
2024-04-09T02:01:44.142Z,198.16
2024-04-09T02:02:44.276Z,198.28
2024-04-09T02:03:44.321Z,198.00
2024-04-09T02:04:44.462Z,197.61
2024-04-09T02:05:44.383Z,197.74
2024-04-09T02:06:44.485Z,197.88
2024-04-09T02:07:44.490Z,197.80
2024-04-09T02:08:44.581Z,197.54
2024-04-09T02:09:44.679Z,197.59
2024-04-09T02:10:44.684Z,197.62
2024-04-09T02:11:44.733Z,197.89
2024-04-09T02:12:44.939Z,197.90
2024-04-09T02:13:44.770Z,197.68
2024-04-09T02:14:44.734Z,197.84
2024-04-09T02:15:44.771Z,197.96
2024-04-09T02:16:44.822Z,197.94
2024-04-09T02:17:44.843Z,197.98
2024-04-09T02:18:44.777Z,197.99
2024-04-09T02:19:44.753Z,197.99
2024-04-09T02:20:44.739Z,197.95
2024-04-09T02:21:44.773Z,197.91
2024-04-09T02:22:44.740Z,197.82
2024-04-09T02:23:44.751Z,197.91
2024-04-09T02:24:44.759Z,198.07
2024-04-09T02:25:44.767Z,198.07
2024-04-09T02:26:44.742Z,198.08
2024-04-09T02:27:44.774Z,197.83
2024-04-09T02:28:44.843Z,197.75
2024-04-09T02:29:44.803Z,198.00
2024-04-09T02:30:44.828Z,197.96
2024-04-09T02:31:44.845Z,197.93
2024-04-09T02:32:44.808Z,198.20
2024-04-09T02:33:44.960Z,198.30
2024-04-09T02:34:44.871Z,198.36
2024-04-09T02:35:44.959Z,198.78
2024-04-09T02:36:45.116Z,198.66
2024-04-09T02:37:45.105Z,198.92
2024-04-09T02:38:45.207Z,198.96
2024-04-09T02:39:45.251Z,199.18
2024-04-09T02:40:45.275Z,199.25
2024-04-09T02:41:45.328Z,199.45
2024-04-09T02:42:45.546Z,199.48
2024-04-09T02:43:45.447Z,199.61
2024-04-09T02:44:45.532Z,199.96
2024-04-09T02:45:45.614Z,199.89
2024-04-09T02:46:45.648Z,199.65
2024-04-09T02:47:45.639Z,199.90
2024-04-09T02:48:45.819Z,199.80
2024-04-09T02:49:45.614Z,200.18
2024-04-09T02:50:45.590Z,200.38
2024-04-09T02:51:45.663Z,200.01
2024-04-09T02:52:45.609Z,199.91
2024-04-09T02:53:45.611Z,199.83
2024-04-09T02:54:45.767Z,199.78
2024-04-09T02:55:45.747Z,200.00
2024-04-09T02:56:45.833Z,199.89
2024-04-09T02:57:45.970Z,199.80
2024-04-09T02:58:45.917Z,199.80
2024-04-09T02:59:45.900Z,199.84
2024-04-09T03:00:46.030Z,199.90
2024-04-09T03:01:45.897Z,200.01
2024-04-09T03:02:45.917Z,200.44
2024-04-09T03:03:46.072Z,200.00
2024-04-09T03:04:45.950Z,199.98
2024-04-09T03:05:45.951Z,199.96
2024-04-09T03:06:46.056Z,199.92
2024-04-09T03:07:46.114Z,199.64
2024-04-09T03:08:46.149Z,199.61
2024-04-09T03:09:46.285Z,199.29
2024-04-09T03:10:46.375Z,199.33
2024-04-09T03:11:46.359Z,199.52
2024-04-09T03:12:46.550Z,199.58
2024-04-09T03:13:46.536Z,199.55
2024-04-09T03:14:46.574Z,199.91
2024-04-09T03:15:46.767Z,198.19
2024-04-09T03:16:46.714Z,195.08
2024-04-09T03:17:46.791Z,191.59
2024-04-09T03:18:46.926Z,188.15
2024-04-09T03:19:50.241Z,184.66
2024-04-09T03:20:46.825Z,182.01
2024-04-09T03:21:46.940Z,178.95
2024-04-09T03:22:46.834Z,175.66
2024-04-09T03:23:46.834Z,173.07
2024-04-09T03:24:46.911Z,170.40
2024-04-09T03:25:46.852Z,167.61
2024-04-09T03:26:46.848Z,164.96
2024-04-09T03:27:46.900Z,162.26
2024-04-09T03:28:46.865Z,159.73
2024-04-09T03:29:46.851Z,157.25
2024-04-09T03:30:46.981Z,155.00
2024-04-09T03:31:46.881Z,152.55
2024-04-09T03:32:46.979Z,150.69
2024-04-09T03:33:47.032Z,148.52
2024-04-09T03:34:46.874Z,146.27
2024-04-09T03:35:46.850Z,144.36
2024-04-09T03:36:46.909Z,142.35
2024-04-09T03:37:46.867Z,140.31
2024-04-09T03:38:46.995Z,138.58
2024-04-09T03:39:46.918Z,136.92
2024-04-09T03:40:46.935Z,135.17
2024-04-09T03:41:46.909Z,133.41
2024-04-09T03:42:46.881Z,131.73
2024-04-09T03:43:46.905Z,129.84
2024-04-09T03:44:46.882Z,128.68
2024-04-09T03:45:46.872Z,126.98
2024-04-09T03:46:46.863Z,125.39
2024-04-09T03:47:46.938Z,124.16
2024-04-09T03:48:47.293Z,122.94
2024-04-09T03:49:46.915Z,121.74
2024-04-09T03:50:46.893Z,120.72
2024-04-09T03:51:47.888Z,119.63
2024-04-09T03:52:46.898Z,118.33
2024-04-09T03:53:46.877Z,117.45
2024-04-09T03:54:46.915Z,116.62
2024-04-09T03:55:46.886Z,115.61
2024-04-09T03:56:46.890Z,114.82
2024-04-09T03:57:46.935Z,114.00
2024-04-09T03:58:46.950Z,113.04
2024-04-09T03:59:46.879Z,112.11
2024-04-09T04:00:46.978Z,111.67
2024-04-09T04:01:46.962Z,110.64
2024-04-09T04:02:46.967Z,109.70
2024-04-09T04:03:47.435Z,109.48
2024-04-09T04:04:47.001Z,109.04
2024-04-09T04:05:46.985Z,107.85
2024-04-09T04:06:47.082Z,107.45
2024-04-09T04:07:47.107Z,106.98
2024-04-09T04:08:47.176Z,106.38
2024-04-09T04:09:47.257Z,105.88
2024-04-09T04:10:47.279Z,105.99
2024-04-09T04:11:47.359Z,105.77
2024-04-09T04:12:47.401Z,105.34
2024-04-09T04:13:47.457Z,105.07
2024-04-09T04:14:47.517Z,104.82
2024-04-09T04:15:47.604Z,103.97
2024-04-09T04:16:47.712Z,103.36
2024-04-09T04:17:47.706Z,102.88
2024-04-09T04:18:48.474Z,102.59
2024-04-09T04:19:47.830Z,102.10
2024-04-09T04:20:47.840Z,101.55
2024-04-09T04:21:47.927Z,100.92
2024-04-09T04:22:47.832Z,100.07
2024-04-09T04:23:47.897Z,99.59
2024-04-09T04:24:47.906Z,98.92
2024-04-09T04:25:47.831Z,98.72
2024-04-09T04:26:47.845Z,98.68
2024-04-09T04:27:47.831Z,98.46
2024-04-09T04:28:47.882Z,98.21
2024-04-09T04:29:47.847Z,97.90
2024-04-09T04:30:47.886Z,97.66
2024-04-09T04:31:47.846Z,97.76
2024-04-09T04:32:47.966Z,97.29
2024-04-09T04:33:55.496Z,50.00
2024-04-09T04:34:55.241Z,50.00
2024-04-09T04:35:55.232Z,50.00
2024-04-09T04:36:55.286Z,50.00
2024-04-09T04:37:55.246Z,50.00
2024-04-09T04:38:55.238Z,50.00
2024-04-09T04:39:55.254Z,50.00
2024-04-09T04:40:55.241Z,50.95
2024-04-09T04:41:55.239Z,50.00
2024-04-09T04:42:55.248Z,53.40
2024-04-09T04:43:55.856Z,52.67
2024-04-09T04:44:55.317Z,52.64
2024-04-09T04:45:55.371Z,52.49
2024-04-09T04:46:56.781Z,53.49
2024-04-09T04:47:55.654Z,51.65
2024-04-09T04:48:55.778Z,54.39
2024-04-09T04:49:55.751Z,53.20
2024-04-09T04:50:55.793Z,51.53
2024-04-09T04:51:55.813Z,53.24
2024-04-09T04:52:55.817Z,53.06
2024-04-09T04:53:55.843Z,50.61
2024-04-09T04:54:57.804Z,50.59
2024-04-09T04:55:55.831Z,50.06
2024-04-09T04:56:55.836Z,46.62
2024-04-09T04:57:55.834Z,51.02
2024-04-09T04:58:55.823Z,50.83
2024-04-09T04:59:55.827Z,51.53
2024-04-09T05:00:55.889Z,52.48
2024-04-09T05:01:55.836Z,51.19
2024-04-09T05:02:55.970Z,50.09
2024-04-09T05:03:55.995Z,53.28
2024-04-09T05:04:55.837Z,52.08
2024-04-09T05:05:55.890Z,50.20
2024-04-09T05:06:55.878Z,51.72
2024-04-09T05:07:55.838Z,52.89
2024-04-09T05:08:55.844Z,51.72
2024-04-09T05:09:55.841Z,51.47
2024-04-09T05:10:55.893Z,52.48
2024-04-09T05:11:56.007Z,52.02
2024-04-09T05:12:55.933Z,51.95
2024-04-09T05:13:55.889Z,53.69
2024-04-09T05:14:55.891Z,54.10
2024-04-09T05:15:55.945Z,54.13
2024-04-09T05:16:55.856Z,55.40
2024-04-09T05:17:55.969Z,55.46
2024-04-09T05:18:55.993Z,56.27
2024-04-09T05:19:55.857Z,57.37
2024-04-09T05:20:55.853Z,59.07
2024-04-09T05:21:55.850Z,62.96
2024-04-09T05:22:55.857Z,62.76
2024-04-09T05:23:55.871Z,65.42
2024-04-09T05:24:55.893Z,64.10
2024-04-09T05:25:55.870Z,66.19
2024-04-09T05:26:55.886Z,65.47
2024-04-09T05:27:56.079Z,66.23
2024-04-09T05:28:55.884Z,66.43
2024-04-09T05:29:55.872Z,67.48
2024-04-09T05:30:55.981Z,65.31
2024-04-09T05:31:56.035Z,66.33
2024-04-09T05:32:57.014Z,69.13
2024-04-09T05:33:56.009Z,71.26
2024-04-09T05:34:55.921Z,71.88
2024-04-09T05:35:55.928Z,72.53
2024-04-09T05:36:55.959Z,74.94
2024-04-09T05:37:56.008Z,75.56
2024-04-09T05:38:56.011Z,73.48
2024-04-09T05:39:56.043Z,71.89
2024-04-09T05:40:56.082Z,76.90
2024-04-09T05:41:56.033Z,71.98
2024-04-09T05:42:56.055Z,75.22
2024-04-09T05:43:56.092Z,70.36
2024-04-09T05:44:56.053Z,71.54
2024-04-09T05:45:56.130Z,73.16
2024-04-09T05:46:56.075Z,72.72
2024-04-09T05:47:56.251Z,75.69
2024-04-09T05:48:56.244Z,71.35
2024-04-09T05:49:56.075Z,72.72
2024-04-09T05:50:56.077Z,74.25
2024-04-09T05:51:56.073Z,76.34
2024-04-09T05:52:56.087Z,77.66
2024-04-09T05:53:56.099Z,79.04
2024-04-09T05:54:56.072Z,80.75
2024-04-09T05:55:56.129Z,81.42
2024-04-09T05:56:56.130Z,82.04
2024-04-09T05:57:56.078Z,82.51
2024-04-09T05:58:56.092Z,81.57
2024-04-09T05:59:56.107Z,80.68
2024-04-09T06:00:56.192Z,82.84
2024-04-09T06:01:56.154Z,76.71
2024-04-09T06:02:56.139Z,77.82
2024-04-09T06:03:56.229Z,77.03
2024-04-09T06:04:56.101Z,78.24
2024-04-09T06:05:56.122Z,78.21
2024-04-09T06:06:56.090Z,76.72
2024-04-09T06:07:56.125Z,76.73
2024-04-09T06:08:56.133Z,76.63
2024-04-09T06:09:56.119Z,75.99
2024-04-09T06:10:56.104Z,72.45
2024-04-09T06:11:56.183Z,76.16
2024-04-09T06:12:56.094Z,71.63
2024-04-09T06:13:56.120Z,70.77
2024-04-09T06:14:56.122Z,66.83
2024-04-09T06:15:56.166Z,64.88
2024-04-09T06:16:56.124Z,63.61
2024-04-09T06:17:56.158Z,64.90
2024-04-09T06:18:56.367Z,62.03
2024-04-09T06:19:56.264Z,61.01
2024-04-09T06:20:56.156Z,58.26
2024-04-09T06:21:56.118Z,56.15
2024-04-09T06:22:56.138Z,58.82
2024-04-09T06:23:56.406Z,57.66
2024-04-09T06:24:56.119Z,55.07
2024-04-09T06:25:56.149Z,53.45
2024-04-09T06:26:56.918Z,53.82
2024-04-09T06:27:56.170Z,55.27
2024-04-09T06:28:56.157Z,53.68
2024-04-09T06:29:56.140Z,52.88
2024-04-09T06:30:56.196Z,53.42
2024-04-09T06:31:56.342Z,53.78
2024-04-09T06:32:56.284Z,56.00
2024-04-09T06:33:56.340Z,56.03
2024-04-09T06:34:56.236Z,55.52
2024-04-09T06:35:57.468Z,55.95
2024-04-09T06:36:56.284Z,56.12
2024-04-09T06:37:56.279Z,57.21
2024-04-09T06:38:56.224Z,60.92
2024-04-09T06:39:56.359Z,64.37
2024-04-09T06:40:56.259Z,74.80
2024-04-09T06:41:56.274Z,78.16
2024-04-09T06:42:56.257Z,82.98
2024-04-09T06:43:56.262Z,83.14
2024-04-09T06:44:56.239Z,84.46
2024-04-09T06:45:56.284Z,87.42
2024-04-09T06:46:56.249Z,94.70
2024-04-09T06:47:56.479Z,105.28
2024-04-09T06:48:56.424Z,109.60
2024-04-09T06:49:56.281Z,115.35
2024-04-09T06:50:56.277Z,118.51
2024-04-09T06:51:56.270Z,121.22
2024-04-09T06:52:56.273Z,123.20
2024-04-09T06:53:56.283Z,123.06
2024-04-09T06:54:56.353Z,123.21
2024-04-09T06:55:56.363Z,123.93
2024-04-09T06:56:56.300Z,125.75
2024-04-09T06:57:56.280Z,127.11
2024-04-09T06:58:56.291Z,129.82
2024-04-09T06:59:56.375Z,133.61
2024-04-09T07:00:56.358Z,133.49
2024-04-09T07:01:56.477Z,135.16
2024-04-09T07:02:56.399Z,132.79
2024-04-09T07:03:56.567Z,133.27
2024-04-09T07:04:56.278Z,133.04
2024-04-09T07:05:56.296Z,133.07
2024-04-09T07:06:56.303Z,131.34
2024-04-09T07:07:56.321Z,132.05
2024-04-09T07:08:56.335Z,130.50
2024-04-09T07:09:56.320Z,130.16
2024-04-09T07:10:56.300Z,129.12
2024-04-09T07:11:56.342Z,126.04
2024-04-09T07:12:56.312Z,128.09
2024-04-09T07:13:56.318Z,126.53
2024-04-09T07:14:56.338Z,123.23
2024-04-09T07:15:56.363Z,124.53
2024-04-09T07:16:56.371Z,125.16
2024-04-09T07:17:56.391Z,122.88
2024-04-09T07:18:56.566Z,125.63
2024-04-09T07:19:56.331Z,123.73
2024-04-09T07:20:56.328Z,121.18
2024-04-09T07:21:56.339Z,123.47
2024-04-09T07:22:56.338Z,123.79
2024-04-09T07:23:56.385Z,123.50
2024-04-09T07:24:56.344Z,123.79
2024-04-09T07:25:56.398Z,118.64
2024-04-09T07:26:56.447Z,116.46
2024-04-09T07:27:57.067Z,114.69
2024-04-09T07:28:56.498Z,111.47
2024-04-09T07:29:56.378Z,107.89
2024-04-09T07:30:56.405Z,107.25
2024-04-09T07:31:56.379Z,102.13
2024-04-09T07:32:56.410Z,102.32
2024-04-09T07:33:56.622Z,100.59
2024-04-09T07:34:56.371Z,98.13
2024-04-09T07:35:56.395Z,94.44
2024-04-09T07:36:56.572Z,92.46
2024-04-09T07:37:56.377Z,90.68
2024-04-09T07:38:56.387Z,88.67
2024-04-09T07:39:56.541Z,84.46
2024-04-09T07:40:56.386Z,83.18
2024-04-09T07:41:56.379Z,80.37
2024-04-09T07:42:56.413Z,81.87
2024-04-09T07:43:56.400Z,79.62
2024-04-09T07:44:56.391Z,74.32
2024-04-09T07:45:56.450Z,73.09
2024-04-09T07:46:56.436Z,69.29
2024-04-09T07:47:56.537Z,65.74
2024-04-09T07:48:56.847Z,60.96
2024-04-09T07:49:56.489Z,60.53
2024-04-09T07:50:56.524Z,58.42
2024-04-09T07:51:56.479Z,58.50
2024-04-09T07:52:56.503Z,56.64
2024-04-09T07:53:56.510Z,54.46
2024-04-09T07:54:57.837Z,55.96
2024-04-09T07:55:56.490Z,53.11
2024-04-09T07:56:56.523Z,53.70
2024-04-09T07:57:56.546Z,53.73
2024-04-09T07:58:56.581Z,53.77
2024-04-09T07:59:56.595Z,53.81
2024-04-09T08:00:56.804Z,52.13
2024-04-09T08:01:56.542Z,53.53
2024-04-09T08:02:58.402Z,52.35
2024-04-09T08:03:56.764Z,53.29
2024-04-09T08:04:56.759Z,52.57
2024-04-09T08:05:56.610Z,52.48
2024-04-09T08:06:56.609Z,51.94
2024-04-09T08:07:56.733Z,52.07
2024-04-09T08:08:56.853Z,52.79
2024-04-09T08:09:56.602Z,50.28
2024-04-09T08:10:56.768Z,51.53
2024-04-09T08:11:56.695Z,50.03
2024-04-09T08:12:56.593Z,52.45
2024-04-09T08:13:56.561Z,50.00
2024-04-09T08:14:56.557Z,51.05
2024-04-09T08:15:56.567Z,50.55
2024-04-09T08:16:56.551Z,51.24
2024-04-09T08:17:56.686Z,50.00
2024-04-09T08:18:56.862Z,51.21
2024-04-09T08:19:56.725Z,52.85
2024-04-09T08:20:56.595Z,51.28
2024-04-09T08:21:56.641Z,51.50
2024-04-09T08:22:56.574Z,51.88
2024-04-09T08:23:56.590Z,54.00
2024-04-09T08:24:56.592Z,52.90
2024-04-09T08:25:56.712Z,52.92
2024-04-09T08:26:56.596Z,53.44
2024-04-09T08:27:56.721Z,53.76
2024-04-09T08:28:56.708Z,54.51
2024-04-09T08:29:56.596Z,56.25
2024-04-09T08:30:56.660Z,54.40
2024-04-09T08:31:56.670Z,52.90
2024-04-09T08:32:56.847Z,53.11
2024-04-09T08:33:57.711Z,54.90
2024-04-09T08:34:56.723Z,55.92
2024-04-09T08:35:56.608Z,55.57
2024-04-09T08:36:56.713Z,56.25
2024-04-09T08:37:56.602Z,56.25
2024-04-09T08:38:56.751Z,53.35
2024-04-09T08:39:56.785Z,56.27
2024-04-09T08:40:56.730Z,55.44
2024-04-09T08:41:56.678Z,56.47
2024-04-09T08:42:59.287Z,56.94
2024-04-09T08:43:56.613Z,59.32
2024-04-09T08:44:57.446Z,56.70
2024-04-09T08:45:56.736Z,53.44
2024-04-09T08:46:56.614Z,51.49
2024-04-09T08:47:57.194Z,49.82
2024-04-09T08:48:56.871Z,49.08
2024-04-09T08:50:00.385Z,45.38
2024-04-09T08:50:57.897Z,42.62
2024-04-09T08:51:56.758Z,43.75
2024-04-09T08:52:56.851Z,51.57
2024-04-09T08:53:56.632Z,52.54
2024-04-09T08:54:56.658Z,55.62
2024-04-09T08:55:56.635Z,62.42
2024-04-09T08:56:56.650Z,76.27
2024-04-09T08:57:56.667Z,81.23
2024-04-09T08:58:57.512Z,82.26
2024-04-09T08:59:56.643Z,86.07
2024-04-09T09:00:56.876Z,89.55
2024-04-09T09:01:56.749Z,92.29
2024-04-09T09:02:56.748Z,88.85
2024-04-09T09:03:56.885Z,89.58
2024-04-09T09:04:56.849Z,88.56
2024-04-09T09:05:56.868Z,85.03
2024-04-09T09:06:56.945Z,86.75
2024-04-09T09:08:00.003Z,80.58
2024-04-09T09:08:56.984Z,78.31
2024-04-09T09:09:56.977Z,74.42
2024-04-09T09:10:56.993Z,72.30
2024-04-09T09:11:57.013Z,69.90
2024-04-09T09:12:56.999Z,64.89
2024-04-09T09:13:57.681Z,64.15
2024-04-09T09:14:56.980Z,59.28
2024-04-09T09:15:57.010Z,54.80
2024-04-09T09:16:57.084Z,50.00
2024-04-09T09:17:57.027Z,51.97
2024-04-09T09:18:56.993Z,56.03
2024-04-09T09:19:57.628Z,58.96
2024-04-09T09:20:56.990Z,68.75
2024-04-09T09:21:56.996Z,69.04
2024-04-09T09:22:57.019Z,71.02
2024-04-09T09:23:57.006Z,77.74
2024-04-09T09:24:56.991Z,90.61
2024-04-09T09:25:56.977Z,113.37
2024-04-09T09:26:57.035Z,128.34
2024-04-09T09:27:56.983Z,136.25
2024-04-09T09:28:56.986Z,145.49
2024-04-09T09:29:57.023Z,157.21
2024-04-09T09:30:57.034Z,162.82
2024-04-09T09:31:58.046Z,173.21
2024-04-09T09:32:57.097Z,180.29
2024-04-09T09:33:57.145Z,181.50
2024-04-09T09:34:58.047Z,187.89
2024-04-09T09:35:57.042Z,196.24
2024-04-09T09:36:57.008Z,200.46
2024-04-09T09:37:57.993Z,200.00
2024-04-09T09:38:57.039Z,200.15
2024-04-09T09:39:57.054Z,200.32
2024-04-09T09:40:57.015Z,202.07
2024-04-09T09:41:57.052Z,206.99
2024-04-09T09:42:57.061Z,217.62
2024-04-09T09:43:57.912Z,234.74
2024-04-09T09:44:57.048Z,224.59
2024-04-09T09:45:57.108Z,212.68
2024-04-09T09:46:57.516Z,201.95
2024-04-09T09:47:57.175Z,200.00
2024-04-09T09:48:58.190Z,199.37
2024-04-09T09:50:06.153Z,199.55
2024-04-09T09:50:57.207Z,199.66
2024-04-09T09:51:58.077Z,200.91
2024-04-09T09:52:57.307Z,203.41
2024-04-09T09:53:57.207Z,207.99
2024-04-09T09:55:01.059Z,210.55
2024-04-09T09:55:57.294Z,199.56
2024-04-09T09:56:57.192Z,201.27
2024-04-09T09:57:57.190Z,201.69
2024-04-09T09:58:57.213Z,206.88
2024-04-09T09:59:57.203Z,208.07
2024-04-09T10:00:57.379Z,199.01
2024-04-09T10:01:57.303Z,199.26
2024-04-09T10:02:57.246Z,199.73
2024-04-09T10:03:57.554Z,196.03
2024-04-09T10:04:57.469Z,187.98
2024-04-09T10:05:57.278Z,191.09
2024-04-09T10:06:59.927Z,186.77
2024-04-09T10:07:57.286Z,184.92
2024-04-09T10:08:57.328Z,178.22
2024-04-09T10:09:57.307Z,174.88
2024-04-09T10:10:57.312Z,166.27
2024-04-09T10:11:57.494Z,159.00
2024-04-09T10:12:57.446Z,152.76
2024-04-09T10:13:57.320Z,150.35
2024-04-09T10:14:57.462Z,162.00
2024-04-09T10:15:57.506Z,170.40
2024-04-09T10:16:57.331Z,164.20
2024-04-09T10:17:58.517Z,172.23
2024-04-09T10:18:58.369Z,170.64
2024-04-09T10:19:57.342Z,184.83
2024-04-09T10:20:57.428Z,200.00
2024-04-09T10:21:57.684Z,219.60
2024-04-09T10:22:57.483Z,200.04
2024-04-09T10:23:57.552Z,191.23
2024-04-09T10:24:57.637Z,181.38
2024-04-09T10:25:57.681Z,174.45
2024-04-09T10:26:57.726Z,165.66
2024-04-09T10:27:59.577Z,157.64
2024-04-09T10:28:58.006Z,150.83
2024-04-09T10:29:57.909Z,144.82
2024-04-09T10:30:57.954Z,140.75
2024-04-09T10:31:58.026Z,142.79
2024-04-09T10:32:58.215Z,133.99
2024-04-09T10:33:58.323Z,133.43
2024-04-09T10:34:58.294Z,132.31
2024-04-09T10:35:58.248Z,134.62
2024-04-09T10:36:58.400Z,129.07
2024-04-09T10:37:58.391Z,126.06
2024-04-09T10:38:58.409Z,125.97
2024-04-09T10:39:58.632Z,123.04
2024-04-09T10:40:58.562Z,124.42
2024-04-09T10:41:58.641Z,130.51
2024-04-09T10:42:58.654Z,129.26
2024-04-09T10:43:58.707Z,130.96
2024-04-09T10:44:58.778Z,131.95
2024-04-09T10:46:07.547Z,134.76
2024-04-09T10:46:59.937Z,134.86
2024-04-09T10:47:58.898Z,135.99
2024-04-09T10:48:58.881Z,135.05
2024-04-09T10:49:58.828Z,137.33
2024-04-09T10:50:58.830Z,139.30
2024-04-09T10:51:58.892Z,144.93
2024-04-09T10:52:58.828Z,154.53
2024-04-09T10:53:58.943Z,158.64
2024-04-09T10:54:59.018Z,164.23
2024-04-09T10:55:58.887Z,164.62
2024-04-09T10:56:59.056Z,164.89
2024-04-09T10:57:58.915Z,165.54
2024-04-09T10:58:58.939Z,166.40
2024-04-09T10:59:59.042Z,168.23
2024-04-09T11:00:59.304Z,164.65
2024-04-09T11:01:59.110Z,170.50
2024-04-09T11:03:00.223Z,174.16
2024-04-09T11:03:59.378Z,175.41
2024-04-09T11:04:59.508Z,178.54
2024-04-09T11:05:59.603Z,180.07
2024-04-09T11:06:59.816Z,178.09
2024-04-09T11:07:59.767Z,160.62
2024-04-09T11:09:00.071Z,139.55
2024-04-09T11:09:59.828Z,118.77
2024-04-09T11:10:59.783Z,95.03
2024-04-09T11:11:59.915Z,70.44
2024-04-09T11:12:59.790Z,48.52
2024-04-09T11:13:59.847Z,38.25
2024-04-09T11:14:59.936Z,30.55
2024-04-09T11:15:59.920Z,24.93
2024-04-09T11:17:00.005Z,21.37
2024-04-09T11:18:00.171Z,18.44
2024-04-09T11:19:00.258Z,16.57
2024-04-09T11:20:00.036Z,15.61
2024-04-09T11:21:00.132Z,14.99
2024-04-09T11:22:00.063Z,14.16
2024-04-09T11:23:00.057Z,14.46
2024-04-09T11:24:00.203Z,15.55
2024-04-09T11:25:00.127Z,17.14
2024-04-09T11:26:00.132Z,11.96
2024-04-09T11:27:00.151Z,7.33
2024-04-09T11:28:00.059Z,3.32
2024-04-09T11:29:00.344Z,0.00
2024-04-09T11:30:00.816Z,0.00
2024-04-09T11:31:00.283Z,1.43
2024-04-09T11:32:00.173Z,5.71
2024-04-09T11:33:00.369Z,3.59
2024-04-09T11:34:00.263Z,2.23
2024-04-09T11:35:00.228Z,0.73
2024-04-09T11:36:01.006Z,0.00
2024-04-09T11:37:00.188Z,0.00
2024-04-09T11:38:00.088Z,0.39
2024-04-09T11:39:00.359Z,5.70
2024-04-09T11:40:00.163Z,10.50
2024-04-09T11:41:00.110Z,9.54
2024-04-09T11:42:00.188Z,8.84
2024-04-09T11:43:00.108Z,7.72
2024-04-09T11:44:00.229Z,5.70
2024-04-09T11:45:00.232Z,4.48
2024-04-09T11:46:00.115Z,8.60
2024-04-09T11:47:00.161Z,13.06
2024-04-09T11:48:00.213Z,16.77
2024-04-09T11:49:02.217Z,20.23
2024-04-09T11:50:00.177Z,24.16
2024-04-09T11:51:00.119Z,27.45
2024-04-09T11:52:00.117Z,30.61
2024-04-09T11:53:00.103Z,34.45
2024-04-09T11:54:02.301Z,37.96
2024-04-09T11:55:00.206Z,36.71
2024-04-09T11:56:00.132Z,35.96
2024-04-09T11:57:00.153Z,35.93
2024-04-09T11:58:00.113Z,34.77
2024-04-09T11:59:00.161Z,33.69
2024-04-09T12:00:00.692Z,36.52
2024-04-09T12:01:00.194Z,34.44
2024-04-09T12:02:00.132Z,33.13
2024-04-09T12:03:00.231Z,31.49
2024-04-09T12:04:00.312Z,29.79
2024-04-09T12:05:00.346Z,28.24
2024-04-09T12:06:02.900Z,31.14
2024-04-09T12:07:00.156Z,33.63
2024-04-09T12:08:00.150Z,37.02
2024-04-09T12:09:00.205Z,40.27
2024-04-09T12:10:00.175Z,40.13
2024-04-09T12:11:00.178Z,39.57
2024-04-09T12:12:00.287Z,39.12
2024-04-09T12:13:00.157Z,39.00
2024-04-09T12:14:00.157Z,38.97
2024-04-09T12:15:00.353Z,42.51
2024-04-09T12:16:00.215Z,45.84
2024-04-09T12:17:00.148Z,49.01
2024-04-09T12:18:00.384Z,48.66
2024-04-09T12:19:00.332Z,48.28
2024-04-09T12:20:00.258Z,47.60
2024-04-09T12:21:00.224Z,47.82
2024-04-09T12:22:00.201Z,47.35
2024-04-09T12:23:00.168Z,47.37
2024-04-09T12:24:00.371Z,47.08
2024-04-09T12:25:00.270Z,46.86
2024-04-09T12:26:00.188Z,49.83
2024-04-09T12:27:00.402Z,50.12
2024-04-09T12:28:00.182Z,50.24
2024-04-09T12:29:00.189Z,50.04
2024-04-09T12:30:00.396Z,50.11
2024-04-09T12:31:00.276Z,50.00
2024-04-09T12:32:00.194Z,50.04
2024-04-09T12:33:00.320Z,50.28
2024-04-09T12:34:00.318Z,50.06
2024-04-09T12:35:00.339Z,50.00
2024-04-09T12:36:00.245Z,50.29
2024-04-09T12:37:00.211Z,50.21
2024-04-09T12:38:00.220Z,50.07
2024-04-09T12:39:00.197Z,50.25
2024-04-09T12:40:00.268Z,50.00